Time;durP1;ratioP1;P1;durP2;ratioP2;P2;SDS_P1;SDS_P2;PMS_P1;PMS_P2;Temp;Humidity;BMP_temperature;BMP_pressure;BME280_temperature;BME280_humidity;BME280_pressure;Samples;Min_cycle;Max_cycle;Signal;HPM_P1;HPM_P2
2022/05/01 00:01:27;;;;;;;18.45;9.90;;;;;;;9.10;93.41;101371.78;8329353;28;20052;-61
2022/05/01 00:05:29;;;;;;;17.30;10.02;;;;;;;9.13;92.47;101359.91;8328870;28;20065;-61
2022/05/01 00:09:30;;;;;;;16.33;9.18;;;;;;;9.21;92.04;101360.22;8321281;28;20037;-58
2022/05/01 00:13:30;;;;;;;19.40;9.82;;;;;;;9.22;92.08;101364.63;8320983;28;20068;-60
2022/05/01 00:17:31;;;;;;;18.35;9.57;;;;;;;9.15;92.79;101352.56;8309847;28;20064;-60
2022/05/01 00:21:31;;;;;;;14.82;9.82;;;;;;;9.13;93.11;101349.09;8320599;28;20075;-59
2022/05/01 00:25:32;;;;;;;19.30;10.20;;;;;;;8.98;93.99;101350.22;8328510;28;20056;-60
2022/05/01 00:29:33;;;;;;;15.35;9.65;;;;;;;8.84;94.92;101336.88;8328159;28;20268;-60
2022/05/01 00:37:56;;;;;;;17.08;10.50;;;;;;;8.68;96.64;101349.69;8328177;28;21566;-60
2022/05/01 00:41:56;;;;;;;22.95;10.95;;;;;;;8.58;97.19;101348.63;8327749;28;20053;-60
2022/05/01 00:45:57;;;;;;;19.48;9.93;;;;;;;8.61;97.13;101345.72;8327785;28;20040;-60
2022/05/01 00:49:57;;;;;;;19.08;10.60;;;;;;;8.63;96.52;101346.47;8316700;28;20084;-60
2022/05/01 00:53:58;;;;;;;17.90;10.15;;;;;;;8.58;96.49;101336.03;8325606;28;20060;-60
2022/05/01 00:58:01;;;;;;;16.95;10.18;;;;;;;8.59;95.84;101347.66;8327395;28;20034;-60
2022/05/01 01:02:02;;;;;;;16.67;9.93;;;;;;;8.40;96.14;101352.59;8327121;28;20091;-60
2022/05/01 01:06:02;;;;;;;20.23;10.73;;;;;;;8.38;97.13;101341.09;8326495;28;20116;-60
2022/05/01 01:10:03;;;;;;;20.85;11.02;;;;;;;8.06;98.54;101338.72;8326892;28;20034;-60
2022/05/01 01:14:05;;;;;;;17.27;10.90;;;;;;;7.85;100.00;101340.19;8327593;28;20482;-60
2022/05/01 01:18:05;;;;;;;18.52;11.20;;;;;;;7.70;100.00;101341.22;8325775;28;20029;-60
2022/05/01 01:22:08;;;;;;;25.08;12.00;;;;;;;7.52;100.00;101346.94;8326381;28;20117;-60
2022/05/01 01:26:11;;;;;;;19.67;11.38;;;;;;;7.51;100.00;101345.22;8319442;28;20047;-59
2022/05/01 01:31:44;;;;;;;22.10;11.35;;;;;;;7.42;100.00;101357.47;8320608;28;20324;-60
2022/05/01 01:34:37;;;;;;;21.35;11.57;;;;;;;7.33;100.00;101352.69;8327215;28;20370;-60
2022/05/01 01:38:39;;;;;;;19.73;12.27;;;;;;;7.25;100.00;101349.63;8324870;28;20041;-60
2022/05/01 01:42:41;;;;;;;19.85;10.70;;;;;;;7.24;100.00;101353.28;8311590;28;20502;-60
2022/05/01 01:46:41;;;;;;;22.60;11.73;;;;;;;7.28;100.00;101353.94;8325124;28;20401;-61
2022/05/01 01:50:43;;;;;;;18.20;11.35;;;;;;;7.13;100.00;101349.53;8318616;28;20053;-60
2022/05/01 01:54:45;;;;;;;21.58;12.82;;;;;;;6.87;100.00;101356.59;8332985;28;20155;-60
2022/05/01 01:58:46;;;;;;;20.02;11.95;;;;;;;7.10;100.00;101350.59;8301431;28;20040;-60
2022/05/01 02:02:46;;;;;;;21.15;12.23;;;;;;;7.07;100.00;101356.19;8292875;28;20124;-60
2022/05/01 02:06:46;;;;;;;21.70;12.57;;;;;;;7.03;100.00;101353.78;8321024;28;20112;-60
2022/05/01 02:10:47;;;;;;;22.17;13.02;;;;;;;6.90;100.00;101356.41;8325842;28;20507;-60
2022/05/01 02:14:47;;;;;;;23.13;12.93;;;;;;;7.01;100.00;101353.00;8320843;28;20029;-60
2022/05/01 02:18:47;;;;;;;22.10;12.48;;;;;;;6.84;100.00;101348.72;8324741;28;20401;-59
2022/05/01 02:22:48;;;;;;;25.90;13.82;;;;;;;6.91;100.00;101351.88;8325887;28;20069;-60
2022/05/01 02:26:48;;;;;;;25.77;13.77;;;;;;;6.99;100.00;101347.75;8323978;28;20041;-60
2022/05/01 02:30:51;;;;;;;23.90;13.10;;;;;;;6.98;100.00;101346.00;8294740;28;20046;-60
2022/05/01 02:34:52;;;;;;;23.83;14.02;;;;;;;6.85;100.00;101339.69;8320441;28;20057;-60
2022/05/01 02:38:52;;;;;;;23.85;13.75;;;;;;;6.70;100.00;101337.09;8322928;28;20042;-60
2022/05/01 02:42:52;;;;;;;27.58;14.73;;;;;;;6.48;100.00;101334.03;8323879;28;20037;-60
2022/05/01 02:46:54;;;;;;;23.45;15.07;;;;;;;6.32;100.00;101336.81;8324742;28;20037;-60
2022/05/01 02:50:54;;;;;;;24.50;14.20;;;;;;;5.97;100.00;101330.88;8307077;28;20037;-60
2022/05/01 02:54:55;;;;;;;25.88;14.15;;;;;;;6.05;100.00;101338.47;8290064;28;20061;-60
2022/05/01 02:58:55;;;;;;;27.35;14.73;;;;;;;6.32;100.00;101330.56;8306830;28;20053;-60
2022/05/01 03:02:56;;;;;;;26.88;14.10;;;;;;;6.31;100.00;101321.63;8324713;28;20123;-60
2022/05/01 03:06:56;;;;;;;25.88;14.18;;;;;;;5.92;100.00;101316.00;8323369;28;20046;-61
2022/05/01 03:10:57;;;;;;;25.38;14.25;;;;;;;5.88;100.00;101322.50;8324278;28;20030;-60
2022/05/01 03:14:57;;;;;;;22.95;14.25;;;;;;;5.76;100.00;101318.69;8322725;28;20449;-60
2022/05/01 03:23:18;;;;;;;32.30;16.70;;;;;;;5.46;100.00;101319.63;8327124;28;20395;-60
2022/05/01 03:27:18;;;;;;;29.88;15.57;;;;;;;5.74;100.00;101312.53;8329354;28;20397;-59
2022/05/01 03:31:19;;;;;;;31.70;16.80;;;;;;;5.88;100.00;101307.28;8330558;28;20486;-60
2022/05/01 03:35:19;;;;;;;27.52;15.52;;;;;;;5.82;100.00;101312.13;8330284;28;20057;-59
2022/05/01 03:39:20;;;;;;;30.42;16.02;;;;;;;5.64;100.00;101313.19;8329889;28;20452;-60
2022/05/01 03:43:20;;;;;;;29.10;16.75;;;;;;;5.87;100.00;101307.38;8322962;28;20042;-58
2022/05/01 03:47:21;;;;;;;30.00;16.52;;;;;;;5.90;100.00;101309.88;8328485;28;20041;-60
2022/05/01 03:51:21;;;;;;;26.48;15.88;;;;;;;6.06;100.00;101302.59;8329248;28;20664;-60
2022/05/01 03:55:22;;;;;;;23.38;14.98;;;;;;;6.18;100.00;101309.91;8329990;28;20157;-59
2022/05/01 03:59:24;;;;;;;25.33;15.75;;;;;;;5.89;100.00;101300.94;8327942;28;20049;-59
2022/05/01 04:03:25;;;;;;;28.65;15.93;;;;;;;5.99;100.00;101296.78;8328919;28;20520;-59
2022/05/01 04:07:26;;;;;;;25.45;15.85;;;;;;;5.83;100.00;101303.16;8327817;28;20069;-60
2022/05/01 04:11:26;;;;;;;31.88;15.73;;;;;;;6.07;100.00;101302.50;8319687;28;20057;-60
2022/05/01 04:15:26;;;;;;;27.35;15.68;;;;;;;5.96;100.00;101299.63;8321774;28;20120;-60
2022/05/01 04:19:28;;;;;;;28.58;17.05;;;;;;;6.03;100.00;101303.66;8326399;28;20037;-60
2022/05/01 04:23:29;;;;;;;28.05;15.77;;;;;;;6.36;100.00;101298.06;8329502;28;20071;-60
2022/05/01 04:27:29;;;;;;;29.80;16.45;;;;;;;6.51;100.00;101302.47;8328492;28;20045;-60
2022/05/01 04:31:29;;;;;;;28.60;15.93;;;;;;;6.86;100.00;101306.47;8326874;28;20079;-60
2022/05/01 04:35:33;;;;;;;27.05;15.82;;;;;;;6.98;100.00;101305.69;8328566;28;20044;-60
2022/05/01 04:39:33;;;;;;;23.07;15.00;;;;;;;7.15;100.00;101305.47;8328632;28;20034;-60
2022/05/01 04:43:35;;;;;;;23.80;13.85;;;;;;;7.20;100.00;101303.31;8328159;28;20095;-60
2022/05/01 04:47:36;;;;;;;22.13;14.55;;;;;;;7.36;100.00;101301.38;8328572;28;20045;-60
2022/05/01 04:51:36;;;;;;;28.95;14.70;;;;;;;7.60;100.00;101307.78;8322616;28;20095;-59
2022/05/01 04:55:39;;;;;;;27.00;15.40;;;;;;;7.69;100.00;101307.19;8324718;28;20435;-60
2022/05/01 04:59:40;;;;;;;24.88;14.25;;;;;;;7.99;100.00;101288.06;8321057;28;20117;-60
2022/05/01 05:03:41;;;;;;;22.83;13.82;;;;;;;8.38;100.00;101300.66;8325535;28;20044;-59
2022/05/01 05:07:42;;;;;;;26.42;14.30;;;;;;;8.85;100.00;101300.84;8326115;28;20053;-59
2022/05/01 05:11:42;;;;;;;29.58;16.27;;;;;;;9.25;99.45;101310.44;8327051;28;20041;-60
2022/05/01 05:15:42;;;;;;;25.67;15.05;;;;;;;9.21;99.50;101317.06;8327813;28;20116;-60
2022/05/01 05:19:43;;;;;;;25.55;14.73;;;;;;;9.03;100.00;101310.31;8327712;28;20025;-60
2022/05/01 05:23:43;;;;;;;23.17;14.07;;;;;;;9.18;100.00;101314.56;8325138;28;20238;-59
2022/05/01 05:27:43;;;;;;;27.17;15.25;;;;;;;9.29;100.00;101318.19;8326102;28;20049;-60
2022/05/01 05:31:44;;;;;;;21.42;13.63;;;;;;;9.32;98.87;101323.38;8321768;28;20037;-59
2022/05/01 05:35:45;;;;;;;34.55;14.95;;;;;;;9.32;99.41;101323.38;8325690;28;20107;-61
2022/05/01 05:39:46;;;;;;;25.83;15.40;;;;;;;9.36;98.54;101313.19;8324887;28;20030;-60
2022/05/01 05:43:46;;;;;;;25.70;13.82;;;;;;;9.73;96.84;101323.00;8307512;28;20034;-60
2022/05/01 05:47:47;;;;;;;24.23;13.48;;;;;;;10.20;96.17;101328.34;8325597;28;20126;-60
2022/05/01 05:51:47;;;;;;;23.50;14.07;;;;;;;10.58;93.86;101318.09;8303924;28;20033;-60
2022/05/01 05:55:48;;;;;;;21.85;13.80;;;;;;;10.80;93.17;101328.94;8325064;28;20112;-60
2022/05/01 05:59:48;;;;;;;23.05;14.32;;;;;;;10.94;91.85;101320.59;8313616;28;20096;-60
2022/05/01 06:03:49;;;;;;;31.98;16.23;;;;;;;11.38;90.59;101328.66;8324645;28;20544;-59
2022/05/01 06:07:49;;;;;;;30.70;16.08;;;;;;;11.20;90.73;101327.44;8323725;28;20673;-60
2022/05/01 06:11:50;;;;;;;29.98;16.48;;;;;;;11.54;89.88;101326.41;8325485;28;20030;-61
2022/05/01 06:15:50;;;;;;;28.45;17.15;;;;;;;11.88;88.15;101325.34;8326233;28;20106;-61
2022/05/01 06:19:50;;;;;;;28.97;16.67;;;;;;;12.05;85.18;101323.06;8320755;28;20049;-60
2022/05/01 06:23:51;;;;;;;26.63;15.80;;;;;;;11.95;85.02;101320.25;8322220;28;20312;-60
2022/05/01 06:27:51;;;;;;;28.08;16.35;;;;;;;12.09;85.08;101328.09;8297807;28;20452;-60
2022/05/01 06:31:52;;;;;;;31.67;16.85;;;;;;;12.60;84.30;101322.75;8292921;28;20048;-61
2022/05/01 06:35:54;;;;;;;30.65;17.55;;;;;;;12.52;81.59;101328.81;8293187;28;20072;-60
2022/05/01 06:39:54;;;;;;;29.40;16.60;;;;;;;12.38;81.33;101320.19;8314540;28;20038;-61
2022/05/01 06:43:55;;;;;;;28.35;16.73;;;;;;;12.25;81.15;101328.50;8302919;28;20041;-60
2022/05/01 06:47:55;;;;;;;34.35;16.92;;;;;;;12.13;81.88;101328.69;8324710;28;20493;-60
2022/05/01 06:51:55;;;;;;;27.80;16.60;;;;;;;12.39;81.66;101320.03;8286711;28;20041;-61
2022/05/01 06:55:56;;;;;;;29.67;16.88;;;;;;;12.56;81.37;101326.72;8270091;28;20045;-60
2022/05/01 06:59:57;;;;;;;29.80;17.42;;;;;;;13.08;82.65;101322.00;8309722;28;20046;-61
2022/05/01 07:03:58;;;;;;;29.60;16.58;;;;;;;13.28;79.53;101317.50;8290999;28;20045;-61
2022/05/01 07:08:00;;;;;;;27.63;17.00;;;;;;;13.36;79.78;101314.97;8295127;28;20560;-61
2022/05/01 07:12:01;;;;;;;30.50;16.83;;;;;;;13.53;79.76;101320.56;8323748;28;20494;-61
2022/05/01 07:16:02;;;;;;;28.70;15.35;;;;;;;13.54;76.14;101324.13;8355461;28;20405;-61
2022/05/01 07:20:03;;;;;;;30.25;16.70;;;;;;;13.56;76.64;101319.41;8319688;28;20033;-61
2022/05/01 07:24:03;;;;;;;31.02;15.52;;;;;;;13.88;74.86;101324.63;8324616;28;20088;-61
2022/05/01 07:28:04;;;;;;;29.23;16.67;;;;;;;13.77;77.33;101314.75;8323255;28;20160;-61
2022/05/01 07:32:05;;;;;;;25.92;16.80;;;;;;;14.23;75.55;101320.34;8321502;28;20036;-61
2022/05/01 07:36:05;;;;;;;27.70;16.08;;;;;;;14.63;75.17;101321.00;8322749;28;20079;-61
2022/05/01 07:40:06;;;;;;;30.70;16.65;;;;;;;14.53;72.83;101317.47;8311911;28;20092;-61
2022/05/01 07:44:08;;;;;;;29.00;17.58;;;;;;;14.79;74.69;101323.97;8324677;28;20069;-61
2022/05/01 07:48:09;;;;;;;28.85;15.88;;;;;;;14.34;72.46;101328.38;8307714;28;20520;-61
2022/05/01 07:52:09;;;;;;;23.42;14.27;;;;;;;14.94;72.46;101327.94;8298811;28;20398;-61
2022/05/01 07:56:10;;;;;;;24.38;15.63;;;;;;;14.50;72.73;101328.63;8289523;28;20052;-60
2022/05/01 08:00:11;;;;;;;29.45;17.50;;;;;;;14.65;71.89;101327.16;8282721;28;20046;-61
2022/05/01 08:04:43;;;;;;;26.02;16.00;;;;;;;14.98;71.23;101323.88;8281706;28;20541;-61
2022/05/01 08:08:33;;;;;;;28.67;17.02;;;;;;;14.67;70.78;101322.41;8319302;28;20061;-61
2022/05/01 08:12:33;;;;;;;26.13;17.23;;;;;;;14.91;70.22;101322.78;8320415;28;20049;-61
2022/05/01 08:16:34;;;;;;;28.90;15.67;;;;;;;15.25;71.35;101315.75;8301736;28;20061;-61
2022/05/01 08:21:05;;;;;;;24.55;15.52;;;;;;;15.80;70.45;101322.06;8301338;28;20611;-61
2022/05/01 08:24:55;;;;;;;26.42;15.32;;;;;;;15.98;68.22;101313.88;8293912;28;20049;-61
2022/05/01 08:28:56;;;;;;;25.52;15.25;;;;;;;16.26;66.61;101326.41;8294310;28;20080;-61
2022/05/01 08:32:57;;;;;;;25.88;17.08;;;;;;;15.80;65.23;101332.09;8294991;28;20971;-61
2022/05/01 08:36:57;;;;;;;21.75;15.32;;;;;;;15.84;65.94;101322.59;8299477;28;20045;-59
2022/05/01 08:40:58;;;;;;;23.88;15.20;;;;;;;15.64;68.15;101324.59;8305037;28;20038;-62
2022/05/01 08:45:01;;;;;;;21.77;15.70;;;;;;;15.65;67.74;101312.69;8296277;28;20050;-61
2022/05/01 08:49:04;;;;;;;28.58;15.45;;;;;;;15.31;65.88;101308.84;8291934;28;20502;-61
2022/05/01 08:53:07;;;;;;;26.33;15.20;;;;;;;15.09;66.28;101315.53;8297368;28;20037;-61
2022/05/01 08:57:07;;;;;;;21.45;14.52;;;;;;;14.90;67.37;101312.91;8290770;28;20042;-61
2022/05/01 09:01:08;;;;;;;22.13;14.40;;;;;;;15.11;67.89;101319.00;8294133;28;20037;-61
2022/05/01 09:05:10;;;;;;;27.17;14.52;;;;;;;14.69;67.67;101317.69;8295233;28;20049;-61
2022/05/01 09:09:17;;;;;;;24.40;14.77;;;;;;;14.59;68.12;101316.88;8295867;28;20046;-61
2022/05/01 09:13:23;;;;;;;17.60;12.23;;;;;;;14.58;67.11;101315.13;8294319;28;20045;-57
2022/05/01 09:17:24;;;;;;;20.95;13.05;;;;;;;14.52;67.04;101318.44;8296315;28;20041;-61
2022/05/01 09:21:24;;;;;;;16.75;11.75;;;;;;;14.67;66.69;101314.25;8305799;28;20140;-61
2022/05/01 09:25:27;;;;;;;15.87;11.27;;;;;;;14.56;65.91;101317.16;8292940;28;20057;-61
2022/05/01 09:29:32;;;;;;;18.77;12.18;;;;;;;14.91;66.98;101328.22;8298007;28;20297;-62
2022/05/01 09:33:32;;;;;;;17.30;11.45;;;;;;;14.63;66.09;101328.31;8307181;28;20600;-62
2022/05/01 09:37:33;;;;;;;18.60;12.02;;;;;;;14.91;67.00;101328.22;8318222;28;20480;-62
2022/05/01 09:41:33;;;;;;;18.88;12.35;;;;;;;14.92;65.95;101324.53;8318819;28;20464;-62
2022/05/01 09:45:34;;;;;;;18.50;12.18;;;;;;;14.86;66.29;101318.78;8317929;28;20060;-62
2022/05/01 09:49:51;;;;;;;24.70;13.15;;;;;;;14.94;66.29;101325.19;8315423;28;20059;-62
2022/05/01 09:53:52;;;;;;;20.67;12.48;;;;;;;15.67;66.33;101325.16;8316301;28;20045;-62
2022/05/01 09:58:14;;;;;;;22.15;13.45;;;;;;;15.60;63.97;101321.34;8297865;28;20079;-63
2022/05/01 10:02:14;;;;;;;24.02;15.27;;;;;;;15.51;63.62;101322.25;8313834;28;20068;-62
2022/05/01 10:06:16;;;;;;;24.58;15.63;;;;;;;15.75;62.47;101318.94;8316747;28;20041;-63
2022/05/01 10:10:16;;;;;;;24.08;15.40;;;;;;;15.85;62.13;101318.88;8316208;28;20037;-63
2022/05/01 10:14:20;;;;;;;22.55;15.38;;;;;;;16.01;62.96;101313.56;8317680;28;20041;-63
2022/05/01 10:18:23;;;;;;;22.88;14.65;;;;;;;16.51;64.23;101311.97;8314905;28;20514;-62
2022/05/01 10:22:25;;;;;;;24.88;14.68;;;;;;;16.15;61.27;101310.28;8316950;28;20037;-62
2022/05/01 10:26:34;;;;;;;29.02;15.23;;;;;;;15.94;61.26;101307.00;8318245;28;20041;-62
2022/05/01 10:32:45;;;;;;;22.95;14.02;;;;;;;15.82;61.43;101302.81;8316818;28;20049;-62
2022/05/01 10:35:25;;;;;;;22.17;13.98;;;;;;;15.76;61.99;101300.72;8315178;28;20045;-63
2022/05/01 10:39:33;;;;;;;27.15;14.07;;;;;;;16.09;60.93;101280.88;8313205;28;20049;-62
2022/05/01 10:43:36;;;;;;;21.85;13.95;;;;;;;16.69;59.37;101282.75;8309791;28;20044;-63
2022/05/01 10:47:39;;;;;;;24.65;14.52;;;;;;;17.59;56.04;101273.78;8316349;28;20037;-60
2022/05/01 10:51:42;;;;;;;21.55;12.93;;;;;;;19.73;53.00;101262.78;8314628;28;20041;-62
2022/05/01 10:55:52;;;;;;;20.42;13.43;;;;;;;20.89;49.64;101257.63;8315653;28;20037;-62
2022/05/01 11:04:19;;;;;;;20.70;14.20;;;;;;;20.38;48.73;101260.44;8390071;27;20398;-62
2022/05/01 11:08:23;;;;;;;23.55;14.98;;;;;;;19.95;49.56;101258.34;8398000;28;20060;-62
2022/05/01 11:12:26;;;;;;;23.83;14.23;;;;;;;20.18;49.17;101259.22;8377515;28;20673;-61
2022/05/01 11:16:51;;;;;;;20.20;14.27;;;;;;;21.80;46.92;101254.44;8376063;28;20064;-61
2022/05/01 11:20:51;;;;;;;21.55;14.85;;;;;;;21.71;45.88;101245.41;8384025;28;20105;-61
2022/05/01 11:24:52;;;;;;;24.15;15.63;;;;;;;21.44;46.86;101248.91;8381875;28;20049;-61
2022/05/01 11:28:55;;;;;;;23.97;16.10;;;;;;;19.82;49.14;101241.66;8377421;28;20090;-62
2022/05/01 11:33:11;;;;;;;19.87;13.97;;;;;;;20.45;48.46;101234.78;8376027;28;20305;-61
2022/05/01 11:37:13;;;;;;;26.85;16.17;;;;;;;18.87;50.26;101226.34;8376462;28;20340;-62
2022/05/01 11:41:13;;;;;;;23.75;16.80;;;;;;;18.98;50.02;101231.47;8377287;28;20048;-61
2022/05/01 11:45:14;;;;;;;29.80;16.52;;;;;;;18.78;51.35;101221.94;8377568;28;20039;-61
2022/05/01 11:49:14;;;;;;;21.90;16.13;;;;;;;18.18;52.01;101226.16;8374767;28;20128;-62
2022/05/01 11:53:19;;;;;;;26.90;17.45;;;;;;;17.84;54.43;101225.44;8422500;28;20036;-62
2022/05/01 12:02:45;;;;;;;24.65;16.13;;;;;;;17.57;54.89;101214.84;8396230;28;20127;-61
2022/05/01 12:06:05;;;;;;;20.98;16.05;;;;;;;17.25;54.05;101211.97;8378159;28;20061;-62
2022/05/01 12:10:11;;;;;;;24.63;16.50;;;;;;;17.02;54.23;101202.69;8377238;28;20036;-62
2022/05/01 12:14:13;;;;;;;30.15;18.15;;;;;;;16.88;54.30;101200.56;8360779;28;20275;-62
2022/05/01 12:18:15;;;;;;;26.30;16.25;;;;;;;17.13;55.21;101194.16;8350511;28;20112;-62
2022/05/01 12:22:18;;;;;;;24.17;15.93;;;;;;;16.89;55.13;101202.28;8378252;28;20037;-61
2022/05/01 12:26:19;;;;;;;25.47;16.53;;;;;;;16.66;55.84;101202.03;8355210;28;20091;-61
2022/05/01 12:30:25;;;;;;;26.20;17.40;;;;;;;16.35;55.84;101206.22;8340260;28;20041;-62
2022/05/01 12:34:27;;;;;;;29.48;16.52;;;;;;;16.54;55.69;101197.00;8364414;28;20186;-61
2022/05/01 12:38:29;;;;;;;26.10;16.55;;;;;;;16.71;55.27;101194.19;8360478;28;20071;-62
2022/05/01 12:43:58;;;;;;;23.52;16.38;;;;;;;16.69;55.20;101195.38;8359639;28;20489;-62
2022/05/01 12:47:02;;;;;;;27.52;17.48;;;;;;;16.76;55.54;101185.50;8357713;28;20040;-63
2022/05/01 12:51:02;;;;;;;26.77;17.38;;;;;;;17.11;54.24;101179.84;8350440;28;20477;-61
2022/05/01 12:55:09;;;;;;;26.60;16.67;;;;;;;17.57;54.83;101182.00;8361245;28;20378;-61
2022/05/01 12:59:30;;;;;;;22.38;16.52;;;;;;;17.44;54.18;101182.50;8351188;28;20037;-61
2022/05/01 13:03:36;;;;;;;25.08;17.83;;;;;;;17.22;53.76;101171.31;8345997;28;20156;-61
2022/05/01 13:07:37;;;;;;;28.13;17.70;;;;;;;17.04;55.02;101174.16;8357789;28;20467;-61
2022/05/01 13:11:37;;;;;;;28.23;17.83;;;;;;;16.80;54.61;101175.97;8357279;28;20068;-61
2022/05/01 13:15:38;;;;;;;30.35;17.75;;;;;;;16.92;54.94;101169.16;8351421;28;20470;-62
2022/05/01 13:19:41;;;;;;;27.63;17.45;;;;;;;17.11;55.47;101166.19;8355668;28;20570;-61
2022/05/01 13:23:42;;;;;;;31.75;18.58;;;;;;;17.23;55.28;101156.66;8356340;28;20575;-62
2022/05/01 13:27:42;;;;;;;28.65;18.35;;;;;;;17.03;55.31;101156.06;8356674;28;20145;-60
2022/05/01 13:31:46;;;;;;;28.10;17.42;;;;;;;17.41;55.01;101147.25;8356199;28;20085;-61
2022/05/01 13:35:47;;;;;;;28.70;18.10;;;;;;;17.61;53.91;101150.56;8367183;28;20447;-62
2022/05/01 13:45:08;;;;;;;28.63;17.83;;;;;;;17.39;54.35;101137.53;8365236;28;20040;-61
2022/05/01 13:48:28;;;;;;;28.05;17.58;;;;;;;17.40;54.49;101133.75;8355973;28;20531;-61
2022/05/01 13:52:29;;;;;;;24.33;17.85;;;;;;;17.41;55.18;101130.84;8359893;28;20033;-61
2022/05/01 13:56:33;;;;;;;26.88;18.33;;;;;;;17.26;54.14;101128.97;8365174;28;20077;-61
2022/05/01 14:00:33;;;;;;;27.42;17.85;;;;;;;17.40;54.91;101123.69;8350800;28;20045;-62
2022/05/01 14:04:34;;;;;;;26.55;16.95;;;;;;;17.43;53.50;101120.66;8347099;28;20078;-62
2022/05/01 14:08:35;;;;;;;27.45;17.20;;;;;;;17.54;53.57;101114.81;8351752;28;20394;-61
2022/05/01 14:12:35;;;;;;;24.58;16.80;;;;;;;17.43;54.39;101120.66;8350679;28;20116;-61
2022/05/01 14:16:38;;;;;;;25.67;17.30;;;;;;;17.21;54.50;101114.94;8340250;28;20588;-61
2022/05/01 14:20:38;;;;;;;24.30;16.75;;;;;;;17.08;53.98;101120.06;8347093;28;20048;-61
2022/05/01 14:24:39;;;;;;;25.45;16.70;;;;;;;17.32;54.42;101111.88;8368116;28;20056;-60
2022/05/01 14:28:39;;;;;;;20.35;16.00;;;;;;;17.44;54.32;101105.09;8364855;28;20044;-60
2022/05/01 14:32:46;;;;;;;28.02;16.88;;;;;;;17.20;53.70;101108.63;8363097;28;20089;-60
2022/05/01 14:36:48;;;;;;;23.88;16.08;;;;;;;17.06;53.88;101111.16;8361323;28;20174;-60
2022/05/01 14:40:49;;;;;;;23.35;16.10;;;;;;;16.96;54.02;101096.81;8355161;28;20047;-60
2022/05/01 14:44:58;;;;;;;23.90;16.77;;;;;;;17.06;54.76;101094.78;8354829;28;20069;-61
2022/05/01 14:49:38;;;;;;;20.67;14.80;;;;;;;17.16;54.11;101104.53;8338387;28;20041;-61
2022/05/01 14:53:39;;;;;;;23.50;16.75;;;;;;;16.90;54.58;101100.22;8332833;28;20045;-60
2022/05/01 14:57:43;;;;;;;24.00;16.30;;;;;;;16.80;55.46;101096.78;8326566;28;20041;-60
2022/05/01 15:06:21;;;;;;;27.30;17.65;;;;;;;16.67;54.89;101093.63;8317374;28;20489;-62
2022/05/01 15:10:22;;;;;;;24.27;17.33;;;;;;;16.69;55.35;101097.06;8303860;28;20056;-61
2022/05/01 15:14:24;;;;;;;27.95;16.75;;;;;;;16.64;55.06;101088.50;8290532;28;20050;-61
2022/05/01 15:18:34;;;;;;;25.90;16.85;;;;;;;16.56;55.71;101092.06;8338302;28;20033;-61
2022/05/01 15:22:42;;;;;;;23.52;16.25;;;;;;;16.59;56.11;101090.91;8349303;28;20045;-61
2022/05/01 15:26:43;;;;;;;25.08;17.25;;;;;;;16.50;55.96;101081.81;8332380;28;20044;-61
2022/05/01 15:30:50;;;;;;;24.65;16.10;;;;;;;16.61;56.16;101083.38;8325636;28;20041;-62
2022/05/01 15:34:55;;;;;;;23.17;16.17;;;;;;;16.50;55.82;101075.50;8351710;28;20079;-60
2022/05/01 15:39:03;;;;;;;23.67;16.52;;;;;;;16.47;55.72;101086.75;8332872;28;20106;-61
2022/05/01 15:43:04;;;;;;;25.02;15.70;;;;;;;16.59;56.26;101079.97;8330927;28;20056;-61
2022/05/01 15:47:06;;;;;;;24.10;16.50;;;;;;;16.68;55.18;101084.44;8356470;28;20595;-61
2022/05/01 15:55:28;;;;;;;23.80;15.05;;;;;;;16.63;55.39;101075.88;8358374;28;21666;-61
2022/05/01 15:59:30;;;;;;;22.85;15.63;;;;;;;16.69;55.07;101080.69;8343041;28;20041;-61
2022/05/01 16:03:30;;;;;;;23.20;16.50;;;;;;;16.76;54.70;101068.06;8337430;28;20136;-62
2022/05/01 16:08:11;;;;;;;23.00;15.45;;;;;;;16.78;55.65;101068.75;8345116;28;20052;-62
2022/05/01 16:12:34;;;;;;;24.17;16.92;;;;;;;16.82;54.90;101070.13;8318236;28;20115;-62
2022/05/01 16:20:55;;;;;;;22.25;15.98;;;;;;;16.73;55.86;101065.66;8292335;28;20914;-60
2022/05/01 16:25:01;;;;;;;23.23;16.60;;;;;;;16.52;55.83;101062.53;8266594;28;20140;-61
2022/05/01 16:29:29;;;;;;;21.83;15.68;;;;;;;16.70;55.59;101063.28;8282101;28;20125;-62
2022/05/01 16:33:41;;;;;;;23.73;15.63;;;;;;;16.63;55.05;101059.50;8272837;28;20042;-62
2022/05/01 16:37:45;;;;;;;24.05;15.95;;;;;;;16.78;55.97;101057.84;8260511;28;20830;-62
2022/05/01 16:41:46;;;;;;;22.83;16.15;;;;;;;16.68;55.52;101043.50;8281271;28;20033;-61
2022/05/01 16:45:53;;;;;;;24.33;16.88;;;;;;;16.52;56.28;101046.16;8289498;28;20045;-61
2022/05/01 16:49:56;;;;;;;24.90;16.23;;;;;;;16.45;56.20;101042.38;8284185;28;20117;-62
2022/05/01 16:53:59;;;;;;;27.45;17.05;;;;;;;16.39;56.68;101041.16;8287466;28;20045;-63
2022/05/01 16:57:59;;;;;;;25.02;16.00;;;;;;;16.29;56.11;101029.50;8250773;28;20808;-62
2022/05/01 17:02:13;;;;;;;22.05;15.77;;;;;;;16.17;56.63;101029.97;8260756;28;20088;-62
2022/05/01 17:06:21;;;;;;;25.35;16.00;;;;;;;16.17;56.54;101035.41;8270426;28;20049;-61
2022/05/01 17:19:23;;;;;;;23.33;14.88;;;;;;;15.93;57.31;101038.88;8363167;27;20443;-60
2022/05/01 17:23:26;;;;;;;23.05;15.13;;;;;;;15.91;57.20;101037.31;8335157;28;20044;-61
2022/05/01 17:27:38;;;;;;;21.88;15.52;;;;;;;15.87;57.11;101034.09;8351431;28;20044;-61
2022/05/01 17:31:51;;;;;;;23.17;15.77;;;;;;;15.88;56.88;101040.38;8334130;28;20037;-61
2022/05/01 17:35:57;;;;;;;22.98;15.93;;;;;;;15.83;57.11;101042.75;8349120;28;20088;-60
2022/05/01 17:39:59;;;;;;;25.25;16.48;;;;;;;15.65;58.01;101035.47;8330627;28;20498;-60
2022/05/01 17:44:01;;;;;;;22.67;15.45;;;;;;;15.63;58.65;101042.09;8337293;28;20041;-60
2022/05/01 17:48:04;;;;;;;24.05;15.02;;;;;;;15.56;58.70;101041.88;8329435;28;20140;-59
2022/05/01 17:52:06;;;;;;;21.70;15.23;;;;;;;15.61;58.91;101039.53;8351918;28;20136;-60
2022/05/01 17:56:06;;;;;;;21.58;15.55;;;;;;;15.51;59.34;101044.25;8336825;28;20121;-59
2022/05/01 18:00:11;;;;;;;29.35;17.02;;;;;;;15.30;59.38;101042.84;8311136;28;20064;-62
2022/05/01 18:10:02;;;;;;;22.92;15.27;;;;;;;15.24;60.01;101052.50;8332417;28;20369;-61
2022/05/01 18:13:50;;;;;;;25.13;14.83;;;;;;;15.17;59.83;101062.34;8329876;28;20505;-60
2022/05/01 18:18:18;;;;;;;26.65;15.50;;;;;;;15.14;59.52;101062.66;8331299;28;20556;-61
2022/05/01 18:22:28;;;;;;;22.42;14.48;;;;;;;14.95;60.33;101062.78;8330884;28;20436;-61
2022/05/01 18:26:58;;;;;;;24.55;15.32;;;;;;;14.83;60.65;101069.50;8332956;28;20048;-61
2022/05/01 18:31:08;;;;;;;28.27;16.88;;;;;;;14.73;60.99;101067.84;8309024;28;20053;-61
2022/05/01 18:35:11;;;;;;;26.52;15.68;;;;;;;14.65;61.40;101076.78;8311647;28;20398;-60
2022/05/01 18:39:13;;;;;;;23.58;15.50;;;;;;;14.62;62.18;101071.63;8312945;28;20070;-61
2022/05/01 18:43:18;;;;;;;21.67;14.95;;;;;;;14.49;62.45;101082.00;8313484;28;20044;-61
2022/05/01 18:47:19;;;;;;;20.85;14.40;;;;;;;14.44;62.93;101073.47;8315574;28;20506;-60
2022/05/01 18:51:22;;;;;;;23.58;14.95;;;;;;;14.35;63.69;101074.38;8314905;28;20048;-61
2022/05/01 18:55:26;;;;;;;24.48;14.15;;;;;;;14.33;64.48;101076.38;8313587;28;20037;-61
2022/05/01 18:59:29;;;;;;;20.95;14.60;;;;;;;14.36;64.41;101081.50;8315960;28;20560;-60
2022/05/01 19:03:32;;;;;;;23.75;14.00;;;;;;;14.33;65.20;101076.38;8324800;28;20548;-61
2022/05/01 19:07:40;;;;;;;19.35;13.82;;;;;;;14.32;65.51;101084.69;8314672;28;20271;-60
2022/05/01 19:12:06;;;;;;;20.23;14.10;;;;;;;14.19;65.58;101074.13;8308589;28;20055;-60
2022/05/01 19:16:17;;;;;;;18.88;13.45;;;;;;;14.03;67.09;101073.88;8339832;28;20053;-61